sensor_id;sensor_type;location;lat;lon;timestamp;temperature;humidity
45729;DHT22;31439;53.512;10.206;2023-12-20T00:01:01;7.10;99.90
45729;DHT22;31439;53.512;10.206;2023-12-20T00:03:27;6.90;99.90
45729;DHT22;31439;53.512;10.206;2023-12-20T00:05:52;6.90;99.90
45729;DHT22;31439;53.512;10.206;2023-12-20T00:08:18;6.80;99.90
45729;DHT22;31439;53.512;10.206;2023-12-20T00:10:44;7.50;99.90
45729;DHT22;31439;53.512;10.206;2023-12-20T00:13:10;6.80;99.90
45729;DHT22;31439;53.512;10.206;2023-12-20T00:15:36;6.90;99.90
45729;DHT22;31439;53.512;10.206;2023-12-20T00:18:01;6.80;99.90
45729;DHT22;31439;53.512;10.206;2023-12-20T00:20:28;6.70;99.90
45729;DHT22;31439;53.512;10.206;2023-12-20T00:22:58;6.70;99.90
45729;DHT22;31439;53.512;10.206;2023-12-20T00:25:24;6.70;99.90
45729;DHT22;31439;53.512;10.206;2023-12-20T00:27:50;6.70;99.90
45729;DHT22;31439;53.512;10.206;2023-12-20T00:30:16;6.70;99.90
45729;DHT22;31439;53.512;10.206;2023-12-20T00:32:41;6.80;99.90
45729;DHT22;31439;53.512;10.206;2023-12-20T00:35:15;6.80;99.90
45729;DHT22;31439;53.512;10.206;2023-12-20T00:37:41;6.80;99.90
45729;DHT22;31439;53.512;10.206;2023-12-20T00:40:07;6.80;99.90
45729;DHT22;31439;53.512;10.206;2023-12-20T00:42:33;6.80;99.90
45729;DHT22;31439;53.512;10.206;2023-12-20T00:44:59;6.70;99.90
45729;DHT22;31439;53.512;10.206;2023-12-20T00:47:25;6.70;99.90
45729;DHT22;31439;53.512;10.206;2023-12-20T00:49:51;6.70;99.90
45729;DHT22;31439;53.512;10.206;2023-12-20T00:52:18;6.80;99.90
45729;DHT22;31439;53.512;10.206;2023-12-20T00:54:44;6.70;99.90
45729;DHT22;31439;53.512;10.206;2023-12-20T00:57:10;6.80;99.90
45729;DHT22;31439;53.512;10.206;2023-12-20T00:59:36;6.80;99.90
45729;DHT22;31439;53.512;10.206;2023-12-20T01:02:02;6.80;99.90
45729;DHT22;31439;53.512;10.206;2023-12-20T01:04:27;6.80;99.90
45729;DHT22;31439;53.512;10.206;2023-12-20T01:06:53;6.80;99.90
45729;DHT22;31439;53.512;10.206;2023-12-20T01:09:19;6.90;99.90
45729;DHT22;31439;53.512;10.206;2023-12-20T01:11:45;6.90;99.90
45729;DHT22;31439;53.512;10.206;2023-12-20T01:14:12;6.90;99.90
45729;DHT22;31439;53.512;10.206;2023-12-20T01:16:37;6.80;99.90
45729;DHT22;31439;53.512;10.206;2023-12-20T01:19:03;6.80;99.90
45729;DHT22;31439;53.512;10.206;2023-12-20T01:21:29;6.80;99.90
45729;DHT22;31439;53.512;10.206;2023-12-20T01:23:54;6.80;99.90
45729;DHT22;31439;53.512;10.206;2023-12-20T01:26:20;6.90;99.90
45729;DHT22;31439;53.512;10.206;2023-12-20T01:28:45;6.90;99.90
45729;DHT22;31439;53.512;10.206;2023-12-20T01:31:11;7.00;99.90
45729;DHT22;31439;53.512;10.206;2023-12-20T01:33:37;6.90;99.90
45729;DHT22;31439;53.512;10.206;2023-12-20T01:36:03;6.80;99.90
45729;DHT22;31439;53.512;10.206;2023-12-20T01:38:29;6.80;99.90
45729;DHT22;31439;53.512;10.206;2023-12-20T01:40:54;6.80;99.90
45729;DHT22;31439;53.512;10.206;2023-12-20T01:43:20;6.80;99.90
45729;DHT22;31439;53.512;10.206;2023-12-20T01:45:47;6.90;99.90
45729;DHT22;31439;53.512;10.206;2023-12-20T01:48:16;6.90;99.90
45729;DHT22;31439;53.512;10.206;2023-12-20T01:50:42;6.80;99.90
45729;DHT22;31439;53.512;10.206;2023-12-20T01:53:11;6.80;99.90
45729;DHT22;31439;53.512;10.206;2023-12-20T01:55:39;6.70;99.90
45729;DHT22;31439;53.512;10.206;2023-12-20T01:58:06;6.70;99.90
45729;DHT22;31439;53.512;10.206;2023-12-20T02:00:33;6.70;99.90
45729;DHT22;31439;53.512;10.206;2023-12-20T02:03:01;6.60;99.90
45729;DHT22;31439;53.512;10.206;2023-12-20T02:05:27;6.60;99.90
45729;DHT22;31439;53.512;10.206;2023-12-20T02:07:53;6.70;99.90
45729;DHT22;31439;53.512;10.206;2023-12-20T02:10:19;6.70;99.90
45729;DHT22;31439;53.512;10.206;2023-12-20T02:12:45;6.60;99.90
45729;DHT22;31439;53.512;10.206;2023-12-20T02:15:10;6.50;99.90
45729;DHT22;31439;53.512;10.206;2023-12-20T02:17:36;6.60;99.90
45729;DHT22;31439;53.512;10.206;2023-12-20T02:20:04;7.50;99.90
45729;DHT22;31439;53.512;10.206;2023-12-20T02:22:31;6.60;99.90
45729;DHT22;31439;53.512;10.206;2023-12-20T02:24:57;6.60;99.90
45729;DHT22;31439;53.512;10.206;2023-12-20T02:27:23;6.50;99.90
45729;DHT22;31439;53.512;10.206;2023-12-20T02:29:50;6.50;99.90
45729;DHT22;31439;53.512;10.206;2023-12-20T02:32:18;6.60;99.90
45729;DHT22;31439;53.512;10.206;2023-12-20T02:34:46;6.60;99.90
45729;DHT22;31439;53.512;10.206;2023-12-20T02:37:12;6.50;99.90
45729;DHT22;31439;53.512;10.206;2023-12-20T02:39:38;6.60;99.90
45729;DHT22;31439;53.512;10.206;2023-12-20T02:42:03;6.50;99.90
45729;DHT22;31439;53.512;10.206;2023-12-20T02:44:29;6.50;99.90
45729;DHT22;31439;53.512;10.206;2023-12-20T02:46:54;6.40;99.90
45729;DHT22;31439;53.512;10.206;2023-12-20T02:49:20;6.40;99.90
45729;DHT22;31439;53.512;10.206;2023-12-20T02:51:46;6.50;99.90
45729;DHT22;31439;53.512;10.206;2023-12-20T02:54:12;6.50;99.90
45729;DHT22;31439;53.512;10.206;2023-12-20T02:56:37;6.40;99.90
45729;DHT22;31439;53.512;10.206;2023-12-20T02:59:03;6.40;99.90
45729;DHT22;31439;53.512;10.206;2023-12-20T03:01:31;6.50;99.90
45729;DHT22;31439;53.512;10.206;2023-12-20T03:03:57;6.40;99.90
45729;DHT22;31439;53.512;10.206;2023-12-20T03:06:22;6.40;99.90
45729;DHT22;31439;53.512;10.206;2023-12-20T03:08:50;6.40;99.90
45729;DHT22;31439;53.512;10.206;2023-12-20T03:11:16;6.50;99.90
45729;DHT22;31439;53.512;10.206;2023-12-20T03:13:41;6.50;99.90
45729;DHT22;31439;53.512;10.206;2023-12-20T03:16:11;6.40;99.90
45729;DHT22;31439;53.512;10.206;2023-12-20T03:18:36;6.40;99.90
45729;DHT22;31439;53.512;10.206;2023-12-20T03:21:02;6.40;99.90
45729;DHT22;31439;53.512;10.206;2023-12-20T03:23:29;6.40;99.90
45729;DHT22;31439;53.512;10.206;2023-12-20T03:25:56;6.40;99.90
45729;DHT22;31439;53.512;10.206;2023-12-20T03:28:21;6.40;99.90
45729;DHT22;31439;53.512;10.206;2023-12-20T03:30:48;6.50;99.90
45729;DHT22;31439;53.512;10.206;2023-12-20T03:33:14;6.40;99.90
45729;DHT22;31439;53.512;10.206;2023-12-20T03:35:39;6.40;99.90
45729;DHT22;31439;53.512;10.206;2023-12-20T03:38:05;6.50;99.90
45729;DHT22;31439;53.512;10.206;2023-12-20T03:40:31;6.40;99.90
45729;DHT22;31439;53.512;10.206;2023-12-20T03:42:56;6.40;99.90
45729;DHT22;31439;53.512;10.206;2023-12-20T03:45:22;6.40;99.90
45729;DHT22;31439;53.512;10.206;2023-12-20T03:47:47;6.40;99.90
45729;DHT22;31439;53.512;10.206;2023-12-20T03:50:14;6.40;99.90
45729;DHT22;31439;53.512;10.206;2023-12-20T03:52:39;6.30;99.90
45729;DHT22;31439;53.512;10.206;2023-12-20T03:55:06;6.30;99.90
45729;DHT22;31439;53.512;10.206;2023-12-20T03:57:31;6.40;99.90
45729;DHT22;31439;53.512;10.206;2023-12-20T03:59:57;6.40;99.90
45729;DHT22;31439;53.512;10.206;2023-12-20T04:02:23;6.40;99.90
45729;DHT22;31439;53.512;10.206;2023-12-20T04:04:48;6.30;99.90
45729;DHT22;31439;53.512;10.206;2023-12-20T04:07:14;6.40;99.90
45729;DHT22;31439;53.512;10.206;2023-12-20T04:09:40;6.40;99.90
45729;DHT22;31439;53.512;10.206;2023-12-20T04:12:06;6.40;99.90
45729;DHT22;31439;53.512;10.206;2023-12-20T04:14:32;6.40;99.90
45729;DHT22;31439;53.512;10.206;2023-12-20T04:16:58;6.40;99.90
45729;DHT22;31439;53.512;10.206;2023-12-20T04:19:23;6.40;99.90
45729;DHT22;31439;53.512;10.206;2023-12-20T04:21:49;6.50;99.90
45729;DHT22;31439;53.512;10.206;2023-12-20T04:24:15;6.60;99.90
45729;DHT22;31439;53.512;10.206;2023-12-20T04:26:40;6.50;99.90
45729;DHT22;31439;53.512;10.206;2023-12-20T04:29:06;6.40;99.90
45729;DHT22;31439;53.512;10.206;2023-12-20T04:31:31;6.50;99.90
45729;DHT22;31439;53.512;10.206;2023-12-20T04:33:57;6.50;99.90
45729;DHT22;31439;53.512;10.206;2023-12-20T04:36:23;6.50;99.90
45729;DHT22;31439;53.512;10.206;2023-12-20T04:38:50;6.60;99.90
45729;DHT22;31439;53.512;10.206;2023-12-20T04:41:16;6.50;99.90
45729;DHT22;31439;53.512;10.206;2023-12-20T04:43:44;6.50;99.90
45729;DHT22;31439;53.512;10.206;2023-12-20T04:46:10;6.50;99.90
45729;DHT22;31439;53.512;10.206;2023-12-20T04:48:35;6.50;99.90
45729;DHT22;31439;53.512;10.206;2023-12-20T04:51:01;6.50;99.90
45729;DHT22;31439;53.512;10.206;2023-12-20T04:53:26;6.60;99.90
45729;DHT22;31439;53.512;10.206;2023-12-20T04:55:53;6.50;99.90
45729;DHT22;31439;53.512;10.206;2023-12-20T04:58:19;6.60;99.90
45729;DHT22;31439;53.512;10.206;2023-12-20T05:00:44;6.60;99.90
45729;DHT22;31439;53.512;10.206;2023-12-20T05:03:10;6.60;99.90
45729;DHT22;31439;53.512;10.206;2023-12-20T05:05:36;6.50;99.90
45729;DHT22;31439;53.512;10.206;2023-12-20T05:08:01;6.60;99.90
45729;DHT22;31439;53.512;10.206;2023-12-20T05:10:27;6.50;99.90
45729;DHT22;31439;53.512;10.206;2023-12-20T05:12:53;6.50;99.90
45729;DHT22;31439;53.512;10.206;2023-12-20T05:15:19;6.40;99.90
45729;DHT22;31439;53.512;10.206;2023-12-20T05:17:44;6.50;99.90
45729;DHT22;31439;53.512;10.206;2023-12-20T05:20:10;6.50;99.90
45729;DHT22;31439;53.512;10.206;2023-12-20T05:22:36;6.50;99.90
45729;DHT22;31439;53.512;10.206;2023-12-20T05:25:02;6.50;99.90
45729;DHT22;31439;53.512;10.206;2023-12-20T05:27:27;6.60;99.90
45729;DHT22;31439;53.512;10.206;2023-12-20T05:29:53;6.60;99.90
45729;DHT22;31439;53.512;10.206;2023-12-20T05:32:23;6.50;99.90
45729;DHT22;31439;53.512;10.206;2023-12-20T05:34:48;6.60;99.90
45729;DHT22;31439;53.512;10.206;2023-12-20T05:37:14;6.60;99.90
45729;DHT22;31439;53.512;10.206;2023-12-20T05:39:40;6.60;99.90
45729;DHT22;31439;53.512;10.206;2023-12-20T05:42:05;6.50;99.90
45729;DHT22;31439;53.512;10.206;2023-12-20T05:44:31;6.60;99.90
45729;DHT22;31439;53.512;10.206;2023-12-20T05:46:56;6.60;99.90
45729;DHT22;31439;53.512;10.206;2023-12-20T05:49:22;6.70;99.90
45729;DHT22;31439;53.512;10.206;2023-12-20T05:51:48;6.60;99.90
45729;DHT22;31439;53.512;10.206;2023-12-20T05:54:13;6.70;99.90
45729;DHT22;31439;53.512;10.206;2023-12-20T05:56:39;6.70;99.90
45729;DHT22;31439;53.512;10.206;2023-12-20T05:59:04;6.60;99.90
45729;DHT22;31439;53.512;10.206;2023-12-20T06:01:30;6.50;99.90
45729;DHT22;31439;53.512;10.206;2023-12-20T06:03:55;6.50;99.90
45729;DHT22;31439;53.512;10.206;2023-12-20T06:06:21;6.60;99.90
45729;DHT22;31439;53.512;10.206;2023-12-20T06:08:47;6.60;99.90
45729;DHT22;31439;53.512;10.206;2023-12-20T06:11:12;6.60;99.90
45729;DHT22;31439;53.512;10.206;2023-12-20T06:13:45;6.70;99.90
45729;DHT22;31439;53.512;10.206;2023-12-20T06:16:10;6.60;99.90
45729;DHT22;31439;53.512;10.206;2023-12-20T06:18:36;6.70;99.90
45729;DHT22;31439;53.512;10.206;2023-12-20T06:21:02;6.60;99.90
45729;DHT22;31439;53.512;10.206;2023-12-20T06:23:28;6.60;99.90
45729;DHT22;31439;53.512;10.206;2023-12-20T06:25:54;6.90;99.90
45729;DHT22;31439;53.512;10.206;2023-12-20T06:28:19;6.70;99.90
45729;DHT22;31439;53.512;10.206;2023-12-20T06:30:45;6.70;99.90
45729;DHT22;31439;53.512;10.206;2023-12-20T06:33:12;6.70;99.90
45729;DHT22;31439;53.512;10.206;2023-12-20T06:35:38;6.70;99.90
45729;DHT22;31439;53.512;10.206;2023-12-20T06:38:04;6.70;99.90
45729;DHT22;31439;53.512;10.206;2023-12-20T06:40:30;6.60;99.90
45729;DHT22;31439;53.512;10.206;2023-12-20T06:42:55;6.60;99.90
45729;DHT22;31439;53.512;10.206;2023-12-20T06:45:21;6.70;99.90
45729;DHT22;31439;53.512;10.206;2023-12-20T06:47:47;6.70;99.90
45729;DHT22;31439;53.512;10.206;2023-12-20T06:50:12;6.70;99.90
45729;DHT22;31439;53.512;10.206;2023-12-20T06:52:38;6.80;99.90
45729;DHT22;31439;53.512;10.206;2023-12-20T06:55:04;6.70;99.90
45729;DHT22;31439;53.512;10.206;2023-12-20T06:57:30;6.70;99.90
45729;DHT22;31439;53.512;10.206;2023-12-20T06:59:55;6.70;99.90
45729;DHT22;31439;53.512;10.206;2023-12-20T07:02:21;6.60;99.90
45729;DHT22;31439;53.512;10.206;2023-12-20T07:04:47;6.70;99.90
45729;DHT22;31439;53.512;10.206;2023-12-20T07:07:13;6.70;99.90
45729;DHT22;31439;53.512;10.206;2023-12-20T07:09:39;6.70;99.90
45729;DHT22;31439;53.512;10.206;2023-12-20T07:12:06;6.70;99.90
45729;DHT22;31439;53.512;10.206;2023-12-20T07:14:32;6.70;99.90
45729;DHT22;31439;53.512;10.206;2023-12-20T07:16:57;6.90;99.90
45729;DHT22;31439;53.512;10.206;2023-12-20T07:19:23;6.60;99.90
45729;DHT22;31439;53.512;10.206;2023-12-20T07:21:48;6.60;99.90
45729;DHT22;31439;53.512;10.206;2023-12-20T07:24:14;6.60;99.90
45729;DHT22;31439;53.512;10.206;2023-12-20T07:26:40;6.70;99.90
45729;DHT22;31439;53.512;10.206;2023-12-20T07:29:05;6.60;99.90
45729;DHT22;31439;53.512;10.206;2023-12-20T07:31:32;6.60;99.90
45729;DHT22;31439;53.512;10.206;2023-12-20T07:33:58;6.70;99.90
45729;DHT22;31439;53.512;10.206;2023-12-20T07:36:23;6.70;99.90
45729;DHT22;31439;53.512;10.206;2023-12-20T07:38:49;6.70;99.90
45729;DHT22;31439;53.512;10.206;2023-12-20T07:41:14;6.70;99.90
45729;DHT22;31439;53.512;10.206;2023-12-20T07:43:41;6.70;99.90
45729;DHT22;31439;53.512;10.206;2023-12-20T07:46:08;6.70;99.90
45729;DHT22;31439;53.512;10.206;2023-12-20T07:48:37;6.70;99.90
45729;DHT22;31439;53.512;10.206;2023-12-20T07:51:03;6.80;99.90
45729;DHT22;31439;53.512;10.206;2023-12-20T07:53:29;6.80;99.90
45729;DHT22;31439;53.512;10.206;2023-12-20T07:55:55;6.80;99.90
45729;DHT22;31439;53.512;10.206;2023-12-20T07:58:21;6.80;99.90
45729;DHT22;31439;53.512;10.206;2023-12-20T08:00:47;6.80;99.90
45729;DHT22;31439;53.512;10.206;2023-12-20T08:03:13;6.80;99.90
45729;DHT22;31439;53.512;10.206;2023-12-20T08:05:39;6.80;99.90
45729;DHT22;31439;53.512;10.206;2023-12-20T08:08:06;6.80;99.90
45729;DHT22;31439;53.512;10.206;2023-12-20T08:10:32;6.80;99.90
45729;DHT22;31439;53.512;10.206;2023-12-20T08:12:57;6.90;99.90
45729;DHT22;31439;53.512;10.206;2023-12-20T08:15:23;7.00;99.90
45729;DHT22;31439;53.512;10.206;2023-12-20T08:17:49;6.90;99.90
45729;DHT22;31439;53.512;10.206;2023-12-20T08:20:16;6.90;99.90
45729;DHT22;31439;53.512;10.206;2023-12-20T08:22:42;6.90;99.90
45729;DHT22;31439;53.512;10.206;2023-12-20T08:25:08;6.90;99.90
45729;DHT22;31439;53.512;10.206;2023-12-20T08:27:39;6.80;99.90
45729;DHT22;31439;53.512;10.206;2023-12-20T08:30:05;6.90;99.90
45729;DHT22;31439;53.512;10.206;2023-12-20T08:32:31;6.90;99.90
45729;DHT22;31439;53.512;10.206;2023-12-20T08:34:57;6.90;99.90
45729;DHT22;31439;53.512;10.206;2023-12-20T08:37:23;7.00;99.90
45729;DHT22;31439;53.512;10.206;2023-12-20T08:39:48;7.10;99.90
45729;DHT22;31439;53.512;10.206;2023-12-20T08:42:14;7.10;99.90
45729;DHT22;31439;53.512;10.206;2023-12-20T08:44:39;7.10;99.90
45729;DHT22;31439;53.512;10.206;2023-12-20T08:47:05;7.20;99.90
45729;DHT22;31439;53.512;10.206;2023-12-20T08:49:31;7.10;99.90
45729;DHT22;31439;53.512;10.206;2023-12-20T08:51:56;7.20;99.90
45729;DHT22;31439;53.512;10.206;2023-12-20T08:54:22;7.10;99.90
45729;DHT22;31439;53.512;10.206;2023-12-20T08:56:48;7.10;99.90
45729;DHT22;31439;53.512;10.206;2023-12-20T08:59:13;7.10;99.90
45729;DHT22;31439;53.512;10.206;2023-12-20T09:01:39;7.20;99.90
45729;DHT22;31439;53.512;10.206;2023-12-20T09:04:05;7.20;99.90
45729;DHT22;31439;53.512;10.206;2023-12-20T09:06:31;7.20;99.90
45729;DHT22;31439;53.512;10.206;2023-12-20T09:08:57;7.20;99.90
45729;DHT22;31439;53.512;10.206;2023-12-20T09:11:23;7.20;99.90
45729;DHT22;31439;53.512;10.206;2023-12-20T09:13:48;7.10;99.90
45729;DHT22;31439;53.512;10.206;2023-12-20T09:16:14;7.10;99.90
45729;DHT22;31439;53.512;10.206;2023-12-20T09:18:41;6.90;99.90
45729;DHT22;31439;53.512;10.206;2023-12-20T09:21:07;6.90;99.90
45729;DHT22;31439;53.512;10.206;2023-12-20T09:23:32;6.80;99.90
45729;DHT22;31439;53.512;10.206;2023-12-20T09:25:58;6.80;99.90
45729;DHT22;31439;53.512;10.206;2023-12-20T09:28:24;6.90;99.90
45729;DHT22;31439;53.512;10.206;2023-12-20T09:30:49;6.80;99.90
45729;DHT22;31439;53.512;10.206;2023-12-20T09:33:15;6.80;99.90
45729;DHT22;31439;53.512;10.206;2023-12-20T09:35:42;6.60;99.90
45729;DHT22;31439;53.512;10.206;2023-12-20T09:38:07;6.50;99.90
45729;DHT22;31439;53.512;10.206;2023-12-20T09:40:35;6.50;99.90
45729;DHT22;31439;53.512;10.206;2023-12-20T09:43:07;6.00;99.90
45729;DHT22;31439;53.512;10.206;2023-12-20T09:45:33;6.40;99.90
45729;DHT22;31439;53.512;10.206;2023-12-20T09:48:00;6.40;99.90
45729;DHT22;31439;53.512;10.206;2023-12-20T09:50:26;6.50;99.90
45729;DHT22;31439;53.512;10.206;2023-12-20T09:52:53;6.40;99.90
45729;DHT22;31439;53.512;10.206;2023-12-20T09:55:19;6.50;99.90
45729;DHT22;31439;53.512;10.206;2023-12-20T09:57:46;6.40;99.90
45729;DHT22;31439;53.512;10.206;2023-12-20T10:00:13;6.40;99.90
45729;DHT22;31439;53.512;10.206;2023-12-20T10:02:47;6.50;99.90
45729;DHT22;31439;53.512;10.206;2023-12-20T10:05:16;6.50;99.90
45729;DHT22;31439;53.512;10.206;2023-12-20T10:07:46;6.50;99.90
45729;DHT22;31439;53.512;10.206;2023-12-20T10:10:13;6.50;99.90
45729;DHT22;31439;53.512;10.206;2023-12-20T10:12:39;6.50;99.90
45729;DHT22;31439;53.512;10.206;2023-12-20T10:15:05;6.50;99.90
45729;DHT22;31439;53.512;10.206;2023-12-20T10:17:31;6.50;99.90
45729;DHT22;31439;53.512;10.206;2023-12-20T10:19:57;6.40;99.90
45729;DHT22;31439;53.512;10.206;2023-12-20T10:22:23;6.50;99.90
45729;DHT22;31439;53.512;10.206;2023-12-20T10:24:49;6.50;99.90
45729;DHT22;31439;53.512;10.206;2023-12-20T10:27:18;6.40;99.90
45729;DHT22;31439;53.512;10.206;2023-12-20T10:29:45;6.40;99.90
45729;DHT22;31439;53.512;10.206;2023-12-20T10:32:27;6.40;99.90
45729;DHT22;31439;53.512;10.206;2023-12-20T10:34:54;6.40;99.90
45729;DHT22;31439;53.512;10.206;2023-12-20T10:37:21;6.40;99.90
45729;DHT22;31439;53.512;10.206;2023-12-20T10:39:50;6.30;99.90
45729;DHT22;31439;53.512;10.206;2023-12-20T10:42:18;6.30;99.90
45729;DHT22;31439;53.512;10.206;2023-12-20T10:44:46;6.30;99.90
45729;DHT22;31439;53.512;10.206;2023-12-20T10:47:13;6.30;99.90
45729;DHT22;31439;53.512;10.206;2023-12-20T10:49:39;6.40;99.90
45729;DHT22;31439;53.512;10.206;2023-12-20T10:52:06;6.60;99.90
45729;DHT22;31439;53.512;10.206;2023-12-20T10:54:32;6.30;99.90
45729;DHT22;31439;53.512;10.206;2023-12-20T10:56:58;6.30;99.90
45729;DHT22;31439;53.512;10.206;2023-12-20T10:59:27;6.30;99.90
45729;DHT22;31439;53.512;10.206;2023-12-20T11:01:54;6.30;99.90
45729;DHT22;31439;53.512;10.206;2023-12-20T11:04:35;6.40;99.90
45729;DHT22;31439;53.512;10.206;2023-12-20T11:07:15;6.40;99.90
45729;DHT22;31439;53.512;10.206;2023-12-20T11:09:49;6.40;99.90
45729;DHT22;31439;53.512;10.206;2023-12-20T11:12:33;6.30;99.90
45729;DHT22;31439;53.512;10.206;2023-12-20T11:15:01;6.30;99.90
45729;DHT22;31439;53.512;10.206;2023-12-20T11:17:29;6.40;99.90
45729;DHT22;31439;53.512;10.206;2023-12-20T11:22:26;6.30;99.90
45729;DHT22;31439;53.512;10.206;2023-12-20T11:25:00;6.30;99.90
45729;DHT22;31439;53.512;10.206;2023-12-20T11:27:27;6.50;99.90
45729;DHT22;31439;53.512;10.206;2023-12-20T11:29:56;6.30;99.90
45729;DHT22;31439;53.512;10.206;2023-12-20T11:35:02;6.30;99.90
45729;DHT22;31439;53.512;10.206;2023-12-20T11:37:41;6.30;99.90
45729;DHT22;31439;53.512;10.206;2023-12-20T11:40:15;6.30;99.90
45729;DHT22;31439;53.512;10.206;2023-12-20T11:42:42;6.30;99.90
45729;DHT22;31439;53.512;10.206;2023-12-20T11:45:09;6.30;99.90
45729;DHT22;31439;53.512;10.206;2023-12-20T11:47:35;6.30;99.90
45729;DHT22;31439;53.512;10.206;2023-12-20T11:50:01;6.30;99.90
45729;DHT22;31439;53.512;10.206;2023-12-20T11:52:29;6.30;99.90
45729;DHT22;31439;53.512;10.206;2023-12-20T11:54:56;6.30;99.90
45729;DHT22;31439;53.512;10.206;2023-12-20T11:57:22;6.40;99.90
45729;DHT22;31439;53.512;10.206;2023-12-20T11:59:47;6.30;99.90
45729;DHT22;31439;53.512;10.206;2023-12-20T12:02:13;6.20;99.90
45729;DHT22;31439;53.512;10.206;2023-12-20T12:04:41;6.30;99.90
45729;DHT22;31439;53.512;10.206;2023-12-20T12:07:07;6.30;99.90
45729;DHT22;31439;53.512;10.206;2023-12-20T12:09:33;6.40;99.90
45729;DHT22;31439;53.512;10.206;2023-12-20T12:11:59;6.40;99.90
45729;DHT22;31439;53.512;10.206;2023-12-20T12:14:25;6.40;99.90
45729;DHT22;31439;53.512;10.206;2023-12-20T12:16:51;6.30;99.90
45729;DHT22;31439;53.512;10.206;2023-12-20T12:19:23;7.10;99.90
45729;DHT22;31439;53.512;10.206;2023-12-20T12:22:04;6.00;99.90
45729;DHT22;31439;53.512;10.206;2023-12-20T12:24:32;6.20;99.90
45729;DHT22;31439;53.512;10.206;2023-12-20T12:26:58;6.20;99.90
45729;DHT22;31439;53.512;10.206;2023-12-20T12:29:24;6.30;99.90
45729;DHT22;31439;53.512;10.206;2023-12-20T12:31:50;6.30;99.90
45729;DHT22;31439;53.512;10.206;2023-12-20T12:34:17;6.40;99.90
45729;DHT22;31439;53.512;10.206;2023-12-20T12:36:43;6.40;99.90
45729;DHT22;31439;53.512;10.206;2023-12-20T12:39:17;6.60;99.90
45729;DHT22;31439;53.512;10.206;2023-12-20T12:41:48;6.80;99.90
45729;DHT22;31439;53.512;10.206;2023-12-20T15:52:22;6.60;99.90
45729;DHT22;31439;53.512;10.206;2023-12-20T15:54:48;6.50;99.90
45729;DHT22;31439;53.512;10.206;2023-12-20T15:57:14;6.50;99.90
45729;DHT22;31439;53.512;10.206;2023-12-20T15:59:43;6.60;99.90
45729;DHT22;31439;53.512;10.206;2023-12-20T16:02:08;6.60;99.90
45729;DHT22;31439;53.512;10.206;2023-12-20T16:04:34;6.60;99.90
45729;DHT22;31439;53.512;10.206;2023-12-20T16:07:00;6.60;99.90
45729;DHT22;31439;53.512;10.206;2023-12-20T16:09:25;6.50;99.90
45729;DHT22;31439;53.512;10.206;2023-12-20T16:11:51;6.50;99.90
45729;DHT22;31439;53.512;10.206;2023-12-20T16:14:17;6.40;99.90
45729;DHT22;31439;53.512;10.206;2023-12-20T16:16:49;6.40;99.90
45729;DHT22;31439;53.512;10.206;2023-12-20T16:19:14;6.50;99.90
45729;DHT22;31439;53.512;10.206;2023-12-20T16:21:40;6.40;99.90
45729;DHT22;31439;53.512;10.206;2023-12-20T16:24:06;6.30;99.90
45729;DHT22;31439;53.512;10.206;2023-12-20T16:26:32;6.30;99.90
45729;DHT22;31439;53.512;10.206;2023-12-20T16:28:57;6.40;99.90
45729;DHT22;31439;53.512;10.206;2023-12-20T16:31:23;6.40;99.90
45729;DHT22;31439;53.512;10.206;2023-12-20T16:33:49;6.40;99.90
45729;DHT22;31439;53.512;10.206;2023-12-20T16:36:14;6.40;99.90
45729;DHT22;31439;53.512;10.206;2023-12-20T16:38:40;6.30;99.90
45729;DHT22;31439;53.512;10.206;2023-12-20T16:41:06;6.40;99.90
45729;DHT22;31439;53.512;10.206;2023-12-20T16:43:31;6.60;99.90
45729;DHT22;31439;53.512;10.206;2023-12-20T16:45:57;6.40;99.90
45729;DHT22;31439;53.512;10.206;2023-12-20T16:48:23;6.40;99.90
45729;DHT22;31439;53.512;10.206;2023-12-20T16:50:48;6.30;99.90
45729;DHT22;31439;53.512;10.206;2023-12-20T16:53:14;6.40;99.90
45729;DHT22;31439;53.512;10.206;2023-12-20T16:55:41;6.40;99.90
45729;DHT22;31439;53.512;10.206;2023-12-20T16:58:10;6.50;99.90
45729;DHT22;31439;53.512;10.206;2023-12-20T17:00:35;6.60;99.90
45729;DHT22;31439;53.512;10.206;2023-12-20T17:03:01;6.40;99.90
45729;DHT22;31439;53.512;10.206;2023-12-20T17:05:27;6.40;99.90
45729;DHT22;31439;53.512;10.206;2023-12-20T17:07:53;6.40;99.90
45729;DHT22;31439;53.512;10.206;2023-12-20T17:10:18;6.40;99.90
45729;DHT22;31439;53.512;10.206;2023-12-20T17:12:44;6.50;99.90
45729;DHT22;31439;53.512;10.206;2023-12-20T17:15:10;6.30;99.90
45729;DHT22;31439;53.512;10.206;2023-12-20T17:17:35;6.00;99.90
45729;DHT22;31439;53.512;10.206;2023-12-20T17:20:01;6.00;99.90
45729;DHT22;31439;53.512;10.206;2023-12-20T17:22:27;5.80;99.90
45729;DHT22;31439;53.512;10.206;2023-12-20T17:24:53;5.80;99.90
45729;DHT22;31439;53.512;10.206;2023-12-20T17:27:18;5.80;99.90
45729;DHT22;31439;53.512;10.206;2023-12-20T17:29:44;5.90;99.90
45729;DHT22;31439;53.512;10.206;2023-12-20T17:32:10;5.80;99.90
45729;DHT22;31439;53.512;10.206;2023-12-20T17:34:35;5.80;99.90
45729;DHT22;31439;53.512;10.206;2023-12-20T17:37:02;5.90;99.90
45729;DHT22;31439;53.512;10.206;2023-12-20T17:39:28;5.90;99.90
45729;DHT22;31439;53.512;10.206;2023-12-20T17:41:53;5.80;99.90
45729;DHT22;31439;53.512;10.206;2023-12-20T17:44:19;5.80;99.90
45729;DHT22;31439;53.512;10.206;2023-12-20T17:46:46;5.90;99.90
45729;DHT22;31439;53.512;10.206;2023-12-20T17:49:12;5.80;99.90
45729;DHT22;31439;53.512;10.206;2023-12-20T17:51:38;5.70;99.90
45729;DHT22;31439;53.512;10.206;2023-12-20T17:54:03;5.70;99.90
45729;DHT22;31439;53.512;10.206;2023-12-20T17:56:29;5.80;99.90
45729;DHT22;31439;53.512;10.206;2023-12-20T17:58:55;5.90;99.90
45729;DHT22;31439;53.512;10.206;2023-12-20T18:01:21;5.90;99.90
45729;DHT22;31439;53.512;10.206;2023-12-20T18:03:47;5.90;99.90
45729;DHT22;31439;53.512;10.206;2023-12-20T18:06:13;5.90;99.90
45729;DHT22;31439;53.512;10.206;2023-12-20T18:08:38;6.00;99.90
45729;DHT22;31439;53.512;10.206;2023-12-20T18:11:04;6.00;99.90
45729;DHT22;31439;53.512;10.206;2023-12-20T18:13:29;6.10;99.90
45729;DHT22;31439;53.512;10.206;2023-12-20T18:15:55;6.30;99.90
45729;DHT22;31439;53.512;10.206;2023-12-20T18:18:21;6.20;99.90
45729;DHT22;31439;53.512;10.206;2023-12-20T18:20:46;6.10;99.90
45729;DHT22;31439;53.512;10.206;2023-12-20T18:23:12;6.10;99.90
45729;DHT22;31439;53.512;10.206;2023-12-20T18:25:38;6.10;99.90
45729;DHT22;31439;53.512;10.206;2023-12-20T18:28:04;6.10;99.90
45729;DHT22;31439;53.512;10.206;2023-12-20T18:30:29;6.10;99.90
45729;DHT22;31439;53.512;10.206;2023-12-20T18:32:55;6.10;99.90
45729;DHT22;31439;53.512;10.206;2023-12-20T18:35:21;6.20;99.90
45729;DHT22;31439;53.512;10.206;2023-12-20T18:37:47;6.10;99.90